Waucoma, IA (52171)

7:46 AM CDT on July 30, 2014 (GMT -0500)
KIAHAWKE2 Elev 1161 ft | 42.94 °N, 91.95 °W | Change Station

Current weather conditions updated 0 second ago

Clear
Clear
58.5 °F
Feels Like 58.5 °F
N
0.0
Wind Variable Wind from NNE
Gusts 0.0 mph

Today is forecast to be nearly the same temperature as yesterday. Slight chance of a thunderstorm.

Today
High -- | Low -- °F
--% Chance of Precip.
Yesterday
High -- | Low -- °F
Precip. -- in
5:56 AM 8:31 PM
Waxing Crescent, 11% visible
Pressure 30.07 in
Visibility 10.0 miles
Clouds Clear
Dew Point 56 °F
Humidity 90%
Rainfall 0.00 in
Snow Depth Not available.
UV 1 out of 12
Pollen 6.70 out of 12
Air Quality Not available.
Flu Activity Not available.
METAR KDEH 301235Z AUTO 00000KT 10SM CLR 15/14 A3007 RMK AO2

More Conditions Fewer Conditions

Pressure 30.07 in
Visibility 10.0 miles
Clouds Clear
Dew Point 56 °F
Humidity 90%
Rainfall 0.00 in
Snow Depth Not available.
UV 1 out of 12
Pollen 6.70 out of 12
Air Quality Not available.
Flu Activity Not available.
METAR KDEH 301235Z AUTO 00000KT 10SM CLR 15/14 A3007 RMK AO2

More Conditions Fewer Conditions

10-Day Weather Forecast

Almanac

Astronomy

Jul. 30, 2014 Rise Set
Actual Time 5:56 AM CDT 8:31 PM CDT
Civil Twilight 5:24 AM CDT 9:04 PM CDT
Nautical Twilight 4:43 AM CDT 9:44 PM CDT
Astronomical Twilight 3:57 AM CDT 10:30 PM CDT
Moon 9:35 AM CDT 10:06 PM CDT
Length of Visible Light 15h 39m
Length of Day
14h 34m
Tomorrow will be 2m 11s shorter.
Waxing Crescent, 11% of the Moon is Illuminated
Today
Waxing Crescent
Aug 3
First Quarter
Aug 10
Full
Aug 17
Last Quarter
Aug 25
New

Today's Extremes

State Highs State Lows

Community

WunderPhotos

Upload Photos

1,739,058 photos uploaded!

Nearby

Snow Depth

Station Depth Elevation
No new snow has been reported.

Earthquake Activity

City Distance Mag. Time & Date
No recent earthquake activity has been reported nearby.
Minimum magnitude displayed is 2.5.

Coastal Water Temperatures

Place Temperature
No Stations Reporting

Nearby Weather Stations

Station Location Temp. Dew Point Humidity Wind Precip. Elev Updated Type
Hawkeye, IA 58.5 °F 56 °F 90% NNE  at  0.0 mph 0.00 in / hr 1161 ft 7:46 AM CDT Rapid Fire
Spillville Iowa, Fort Atkinson, IA 61.3 °F 58 °F 90% NE  at  2.0 mph 0.00 in / hr 1129 ft 7:44 AM CDT Normal
Radio Station N0VTZ; 5 Mi. North of, Sumner, IA 57.7 °F -43 °F - WNW  at  0.0 mph 0.00 in / hr 1145 ft 7:46 AM CDT Rapid Fire
Castalia cropcam, Castalia, IA 62.6 °F 59 °F 87% North  at  2.3 mph 0.00 in / hr 1230 ft 7:46 AM CDT Rapid Fire
IADOT New Hampton (US 18), Ionia, IA 52 °F 51 °F 95% SW  at  0 mph 0.00 in / hr 1072 ft 5:55 AM CDT MADIS
IADOT Decorah (IA 9), Castalia, IA 56 °F 55 °F 96% SW  at  0 mph 0.00 in / hr 1017 ft 6:42 AM CDT MADIS
Postville, IA 60.7 °F 58 °F 91% NNW  at  6.0 mph 0.00 in / hr 1181 ft 7:43 AM CDT Normal

Show More Stations Show Fewer Stations